Time;durP1;ratioP1;P1;durP2;ratioP2;P2;SDS_P1;SDS_P2;PMS_P1;PMS_P2;Temp;Humidity;BMP_temperature;BMP_pressure;BME280_temperature;BME280_humidity;BME280_pressure;Samples;Min_cycle;Max_cycle;Signal;HPM_P1;HPM_P2
2022/05/24 00:02:20;;;;;;;9.70;3.85;;;;;;;;;;5016186;28;20053;-75
2022/05/24 00:04:46;;;;;;;6.32;3.67;;;;;;;;;;5016403;28;20050;-75
2022/05/24 00:07:12;;;;;;;7.57;4.15;;;;;;;;;;5016584;28;20095;-75
2022/05/24 00:09:38;;;;;;;10.27;4.13;;;;;;;;;;5017259;28;20062;-75
2022/05/24 00:12:05;;;;;;;9.10;4.15;;;;;;;;;;5014627;28;20054;-76
2022/05/24 00:17:15;;;;;;;9.38;4.05;;;;;;;;;;5012914;28;20046;-76
2022/05/24 00:19:41;;;;;;;6.72;3.97;;;;;;;;;;5016697;28;20044;-76
2022/05/24 00:22:07;;;;;;;8.10;3.88;;;;;;;;;;5016013;28;20060;-75
2022/05/24 00:24:33;;;;;;;9.73;4.20;;;;;;;;;;5016719;28;20400;-75
2022/05/24 00:26:59;;;;;;;8.48;4.10;;;;;;;;;;5015350;28;20103;-75
2022/05/24 00:29:25;;;;;;;8.90;4.00;;;;;;;;;;5013630;28;20042;-75
2022/05/24 00:31:51;;;;;;;8.48;4.35;;;;;;;;;;5017143;28;20038;-75
2022/05/24 00:34:17;;;;;;;8.95;4.40;;;;;;;;;;5016271;28;20042;-75
2022/05/24 00:36:43;;;;;;;7.65;4.10;;;;;;;;;;5013905;28;20042;-74
2022/05/24 00:39:09;;;;;;;7.55;3.85;;;;;;;;;;5016153;28;20053;-75
2022/05/24 00:41:39;;;;;;;8.80;4.20;;;;;;;;;;5011077;28;20496;-75
2022/05/24 00:44:07;;;;;;;8.82;4.32;;;;;;;;;;5007631;28;20034;-75
2022/05/24 00:46:33;;;;;;;7.10;4.13;;;;;;;;;;5015069;28;20042;-75
2022/05/24 00:49:02;;;;;;;6.20;3.97;;;;;;;;;;5014558;28;20056;-75
2022/05/24 00:51:30;;;;;;;7.72;3.85;;;;;;;;;;5014528;28;20046;-74
2022/05/24 00:53:57;;;;;;;8.38;3.88;;;;;;;;;;5011933;28;20038;-75
2022/05/24 00:56:35;;;;;;;8.70;3.70;;;;;;;;;;5011250;28;20413;-75
2022/05/24 00:59:06;;;;;;;7.90;3.70;;;;;;;;;;5013601;28;20077;-76
2022/05/24 01:01:36;;;;;;;7.68;4.03;;;;;;;;;;5012786;28;20464;-76
2022/05/24 01:04:03;;;;;;;7.40;3.93;;;;;;;;;;5013061;28;20037;-76
2022/05/24 01:06:29;;;;;;;10.57;4.28;;;;;;;;;;5013410;28;20308;-76
2022/05/24 01:08:57;;;;;;;9.40;4.45;;;;;;;;;;5012840;28;20045;-76
2022/05/24 01:11:23;;;;;;;7.45;4.38;;;;;;;;;;5014543;28;20520;-75
2022/05/24 01:13:50;;;;;;;11.20;4.40;;;;;;;;;;5012550;28;20056;-75
2022/05/24 01:16:16;;;;;;;8.25;4.50;;;;;;;;;;5013556;28;20104;-75
2022/05/24 01:18:43;;;;;;;7.88;4.15;;;;;;;;;;5014091;28;20042;-75
2022/05/24 01:21:10;;;;;;;8.77;3.85;;;;;;;;;;5013432;28;20046;-75
2022/05/24 01:23:42;;;;;;;10.13;4.25;;;;;;;;;;5019191;28;20050;-75
2022/05/24 01:26:14;;;;;;;7.97;3.80;;;;;;;;;;5014099;28;20059;-75
2022/05/24 01:28:54;;;;;;;7.45;4.50;;;;;;;;;;5013498;28;20385;-75
2022/05/24 01:31:21;;;;;;;8.75;4.95;;;;;;;;;;5011534;28;20133;-75
2022/05/24 01:36:34;;;;;;;10.30;6.97;;;;;;;;;;5016359;28;20050;-75
2022/05/24 01:39:01;;;;;;;10.75;7.88;;;;;;;;;;5025254;28;20488;-75
2022/05/24 01:41:31;;;;;;;11.70;7.97;;;;;;;;;;5022572;28;20068;-76
2022/05/24 01:43:57;;;;;;;13.85;8.90;;;;;;;;;;5027763;28;20052;-75
2022/05/24 01:46:27;;;;;;;13.45;9.38;;;;;;;;;;5023142;28;20069;-74
2022/05/24 01:48:55;;;;;;;13.60;10.05;;;;;;;;;;5025853;28;20045;-75
2022/05/24 01:51:25;;;;;;;13.20;9.75;;;;;;;;;;5022662;28;20530;-75
2022/05/24 01:53:52;;;;;;;14.90;10.13;;;;;;;;;;5015850;28;20049;-74
2022/05/24 01:56:21;;;;;;;13.43;9.90;;;;;;;;;;5012299;28;20049;-75
2022/05/24 01:58:51;;;;;;;15.93;9.90;;;;;;;;;;5014159;28;20038;-75
2022/05/24 02:01:37;;;;;;;14.25;9.45;;;;;;;;;;5014168;28;20049;-75
2022/05/24 02:04:04;;;;;;;14.48;9.98;;;;;;;;;;5015167;28;20500;-75
2022/05/24 02:06:30;;;;;;;14.70;10.48;;;;;;;;;;5005009;28;20045;-75
2022/05/24 02:08:56;;;;;;;14.60;10.48;;;;;;;;;;5014523;28;20046;-74
2022/05/24 02:11:24;;;;;;;12.93;9.85;;;;;;;;;;5012379;28;20057;-75
2022/05/24 02:13:52;;;;;;;14.55;10.55;;;;;;;;;;5011099;28;20061;-75
2022/05/24 02:16:22;;;;;;;13.65;9.73;;;;;;;;;;5012243;28;20500;-75
2022/05/24 02:18:49;;;;;;;12.13;10.27;;;;;;;;;;5014412;28;20050;-75
2022/05/24 02:21:15;;;;;;;14.15;10.50;;;;;;;;;;5013591;28;20037;-75
2022/05/24 02:23:42;;;;;;;14.32;10.60;;;;;;;;;;5012229;28;20403;-75
2022/05/24 02:26:09;;;;;;;14.15;10.45;;;;;;;;;;5014257;28;20121;-75
2022/05/24 02:28:35;;;;;;;13.27;9.57;;;;;;;;;;5013228;28;20078;-75
2022/05/24 02:31:02;;;;;;;15.32;9.48;;;;;;;;;;5012340;28;20068;-75
2022/05/24 02:33:28;;;;;;;14.52;9.93;;;;;;;;;;5014552;28;20122;-75
2022/05/24 02:35:54;;;;;;;12.90;10.35;;;;;;;;;;5009842;28;20034;-75
2022/05/24 02:38:21;;;;;;;14.23;10.32;;;;;;;;;;5012615;28;20050;-75
2022/05/24 02:43:32;;;;;;;14.98;11.13;;;;;;;;;;5014369;28;20081;-75
2022/05/24 02:45:58;;;;;;;17.60;12.18;;;;;;;;;;5012055;28;20042;-75
2022/05/24 02:48:24;;;;;;;16.23;11.57;;;;;;;;;;5018179;28;20052;-75
2022/05/24 02:50:50;;;;;;;18.63;13.85;;;;;;;;;;5006853;28;20053;-75
2022/05/24 02:53:16;;;;;;;18.73;15.10;;;;;;;;;;5015708;28;20510;-75
2022/05/24 02:55:42;;;;;;;20.73;14.95;;;;;;;;;;5016202;28;20048;-75
2022/05/24 02:58:08;;;;;;;24.98;17.45;;;;;;;;;;5016678;28;20049;-75
2022/05/24 03:00:34;;;;;;;23.05;17.50;;;;;;;;;;5015131;28;20048;-76
2022/05/24 03:03:00;;;;;;;22.27;17.10;;;;;;;;;;5016688;28;20041;-76
2022/05/24 03:05:27;;;;;;;22.55;19.85;;;;;;;;;;5017053;28;20053;-75
2022/05/24 03:10:38;;;;;;;24.60;19.83;;;;;;;;;;5018150;28;20049;-76
2022/05/24 03:15:49;;;;;;;24.83;20.88;;;;;;;;;;5011297;28;20447;-76
2022/05/24 03:18:17;;;;;;;24.83;21.38;;;;;;;;;;5016131;28;20045;-76
2022/05/24 03:20:43;;;;;;;27.17;22.83;;;;;;;;;;5015918;28;20042;-76
2022/05/24 03:23:09;;;;;;;25.00;21.65;;;;;;;;;;5014961;28;20496;-76
2022/05/24 03:25:36;;;;;;;25.75;22.80;;;;;;;;;;5017493;28;20050;-76
2022/05/24 03:28:03;;;;;;;25.42;22.73;;;;;;;;;;5013593;28;20038;-75
2022/05/24 03:30:30;;;;;;;25.73;22.98;;;;;;;;;;5014757;28;20050;-75
2022/05/24 03:32:56;;;;;;;27.00;24.17;;;;;;;;;;5016594;28;20124;-75
2022/05/24 03:35:22;;;;;;;26.38;22.80;;;;;;;;;;5008084;28;20050;-75
2022/05/24 03:37:48;;;;;;;27.25;23.73;;;;;;;;;;5014229;28;20555;-75
2022/05/24 03:40:14;;;;;;;28.98;24.30;;;;;;;;;;5014129;28;20112;-75
2022/05/24 03:42:40;;;;;;;26.90;24.20;;;;;;;;;;5012277;28;20480;-76
2022/05/24 03:45:07;;;;;;;28.10;24.55;;;;;;;;;;5006121;28;20046;-75
2022/05/24 03:47:33;;;;;;;27.92;23.98;;;;;;;;;;5012216;28;20060;-75
2022/05/24 03:49:59;;;;;;;27.73;24.42;;;;;;;;;;5015746;28;20046;-75
2022/05/24 03:52:25;;;;;;;30.05;25.05;;;;;;;;;;5016590;28;20042;-75
2022/05/24 03:54:51;;;;;;;28.02;24.85;;;;;;;;;;5014930;28;20042;-75
2022/05/24 04:00:03;;;;;;;24.95;22.25;;;;;;;;;;5010280;28;20081;-75
2022/05/24 04:02:29;;;;;;;29.35;25.85;;;;;;;;;;5015580;28;20404;-75
2022/05/24 04:04:55;;;;;;;27.33;24.60;;;;;;;;;;5016492;28;20047;-75
2022/05/24 04:07:21;;;;;;;27.15;24.15;;;;;;;;;;5006804;28;20068;-75
2022/05/24 04:09:47;;;;;;;27.95;23.42;;;;;;;;;;5014552;28;20057;-75
2022/05/24 04:12:13;;;;;;;30.50;24.60;;;;;;;;;;5014173;28;20061;-75
2022/05/24 04:14:39;;;;;;;27.40;24.42;;;;;;;;;;5014759;28;20058;-75
2022/05/24 04:17:05;;;;;;;25.85;23.05;;;;;;;;;;5016005;28;20125;-75
2022/05/24 04:19:30;;;;;;;25.30;22.48;;;;;;;;;;5015717;28;20052;-76
2022/05/24 04:21:56;;;;;;;26.00;23.23;;;;;;;;;;5022132;28;20044;-74
2022/05/24 04:24:23;;;;;;;26.13;21.88;;;;;;;;;;5015379;28;20114;-74
2022/05/24 04:26:49;;;;;;;25.23;22.52;;;;;;;;;;5018766;28;20056;-74
2022/05/24 04:29:15;;;;;;;25.48;22.88;;;;;;;;;;5021261;28;20129;-74
2022/05/24 04:31:41;;;;;;;24.63;21.95;;;;;;;;;;5005511;28;20129;-75
2022/05/24 04:34:07;;;;;;;25.83;21.42;;;;;;;;;;4995961;28;20042;-76
2022/05/24 04:36:33;;;;;;;22.60;18.63;;;;;;;;;;5006185;28;20052;-76
2022/05/24 04:39:00;;;;;;;24.67;22.02;;;;;;;;;;5014196;28;20073;-74
2022/05/24 04:44:11;;;;;;;22.95;19.20;;;;;;;;;;5017017;28;20492;-74
2022/05/24 04:49:40;;;;;;;24.45;21.15;;;;;;;;;;4952643;28;20051;-75
2022/05/24 04:52:07;;;;;;;23.55;20.83;;;;;;;;;;4954172;28;20424;-75
2022/05/24 04:54:33;;;;;;;25.38;21.95;;;;;;;;;;4954508;28;20379;-76
2022/05/24 04:56:59;;;;;;;23.67;21.15;;;;;;;;;;4954366;29;20465;-75
2022/05/24 04:59:26;;;;;;;24.73;21.48;;;;;;;;;;4937984;29;20051;-75
2022/05/24 05:01:52;;;;;;;24.88;20.65;;;;;;;;;;4953618;29;20090;-76
2022/05/24 05:04:19;;;;;;;29.92;22.60;;;;;;;;;;4952291;28;20138;-75
2022/05/24 05:06:45;;;;;;;23.75;21.13;;;;;;;;;;4952887;28;20047;-75
2022/05/24 05:09:12;;;;;;;27.85;23.27;;;;;;;;;;4954102;28;20078;-76
2022/05/24 05:11:38;;;;;;;25.40;20.05;;;;;;;;;;4952441;28;20659;-75
2022/05/24 05:14:04;;;;;;;24.05;21.05;;;;;;;;;;4953628;28;20087;-75
2022/05/24 05:16:30;;;;;;;27.27;21.70;;;;;;;;;;4953652;28;20126;-76
2022/05/24 05:18:56;;;;;;;24.88;20.90;;;;;;;;;;4952119;28;20038;-75
2022/05/24 05:21:23;;;;;;;28.05;21.50;;;;;;;;;;4951953;29;20070;-75
2022/05/24 05:23:49;;;;;;;26.40;20.90;;;;;;;;;;4979818;28;20054;-75
2022/05/24 05:26:15;;;;;;;24.77;20.25;;;;;;;;;;5013343;28;20132;-75
2022/05/24 05:28:42;;;;;;;27.10;22.85;;;;;;;;;;5012663;28;20034;-75
2022/05/24 05:31:21;;;;;;;29.05;20.77;;;;;;;;;;5011950;28;20042;-75
2022/05/24 05:33:47;;;;;;;30.30;23.38;;;;;;;;;;4997736;28;20125;-75
2022/05/24 05:36:14;;;;;;;30.55;23.85;;;;;;;;;;5010098;28;20046;-75
2022/05/24 05:38:45;;;;;;;26.50;23.00;;;;;;;;;;5013992;28;20135;-75
2022/05/24 05:41:12;;;;;;;27.10;22.92;;;;;;;;;;5012820;28;20072;-75
2022/05/24 05:43:38;;;;;;;26.48;20.98;;;;;;;;;;5009677;28;20046;-75
2022/05/24 05:46:04;;;;;;;28.23;22.33;;;;;;;;;;5013423;28;20050;-75
2022/05/24 05:48:30;;;;;;;32.15;22.73;;;;;;;;;;5010547;28;20061;-75
2022/05/24 05:50:57;;;;;;;28.88;20.45;;;;;;;;;;5013701;28;20077;-75
2022/05/24 05:53:23;;;;;;;29.50;21.10;;;;;;;;;;5012992;28;20049;-75
2022/05/24 05:55:49;;;;;;;25.98;19.17;;;;;;;;;;5010832;28;20518;-75
2022/05/24 05:58:15;;;;;;;23.17;17.38;;;;;;;;;;5012178;28;20050;-75
2022/05/24 06:00:42;;;;;;;25.70;18.55;;;;;;;;;;5013085;28;20373;-75
2022/05/24 06:03:08;;;;;;;20.50;17.20;;;;;;;;;;5012285;28;20081;-75
2022/05/24 06:05:35;;;;;;;24.08;16.70;;;;;;;;;;5006965;28;20137;-75
2022/05/24 06:08:01;;;;;;;22.05;17.17;;;;;;;;;;5012688;28;20479;-75
2022/05/24 06:10:29;;;;;;;25.05;18.27;;;;;;;;;;4993218;28;20054;-76
2022/05/24 06:12:58;;;;;;;26.90;16.90;;;;;;;;;;5002871;28;20042;-75
2022/05/24 06:15:25;;;;;;;26.60;16.38;;;;;;;;;;5012653;28;20630;-75
2022/05/24 06:17:52;;;;;;;21.58;16.77;;;;;;;;;;5012446;28;20400;-75
2022/05/24 06:20:19;;;;;;;22.70;16.55;;;;;;;;;;5003939;28;20042;-75
2022/05/24 06:22:46;;;;;;;24.77;16.98;;;;;;;;;;5011641;28;20038;-76
2022/05/24 06:25:13;;;;;;;22.33;17.38;;;;;;;;;;5011032;28;20076;-75
2022/05/24 06:27:39;;;;;;;21.85;16.48;;;;;;;;;;5009745;28;20530;-75
2022/05/24 06:30:05;;;;;;;22.67;16.63;;;;;;;;;;5003784;28;20042;-75
2022/05/24 06:32:31;;;;;;;25.27;16.50;;;;;;;;;;4998708;28;20133;-75
2022/05/24 06:34:57;;;;;;;21.50;16.08;;;;;;;;;;5000301;28;20512;-75
2022/05/24 06:37:24;;;;;;;21.73;15.75;;;;;;;;;;5011476;28;20056;-75
2022/05/24 06:39:50;;;;;;;20.35;15.88;;;;;;;;;;5017020;28;20420;-75
2022/05/24 06:42:16;;;;;;;19.85;17.55;;;;;;;;;;5016073;28;20044;-75
2022/05/24 06:44:42;;;;;;;22.20;17.95;;;;;;;;;;5013935;28;20052;-75
2022/05/24 06:47:08;;;;;;;21.42;17.50;;;;;;;;;;5029418;28;20038;-75
2022/05/24 06:49:36;;;;;;;23.63;17.73;;;;;;;;;;5016206;28;20041;-75
2022/05/24 06:52:02;;;;;;;23.58;17.75;;;;;;;;;;5016109;28;20038;-75
2022/05/24 06:54:28;;;;;;;23.38;17.83;;;;;;;;;;5020412;28;20427;-75
2022/05/24 06:56:54;;;;;;;21.65;17.27;;;;;;;;;;5016242;28;20141;-75
2022/05/24 07:04:49;;;;;;;23.65;17.25;;;;;;;;;;5013943;28;20045;-75
2022/05/24 07:07:16;;;;;;;21.45;16.48;;;;;;;;;;5014176;28;20057;-75
2022/05/24 07:09:42;;;;;;;24.08;15.85;;;;;;;;;;5013909;28;20069;-75
2022/05/24 07:12:08;;;;;;;23.80;16.27;;;;;;;;;;5014451;28;20424;-75
2022/05/24 07:14:34;;;;;;;19.63;15.05;;;;;;;;;;5015764;28;20119;-75
2022/05/24 07:17:00;;;;;;;22.63;15.63;;;;;;;;;;5015623;28;20481;-75
2022/05/24 07:19:27;;;;;;;19.38;15.30;;;;;;;;;;4997014;28;20038;-75
2022/05/24 07:21:53;;;;;;;18.65;15.05;;;;;;;;;;5014615;28;20038;-75
2022/05/24 07:24:19;;;;;;;22.70;14.68;;;;;;;;;;5013640;28;20049;-75
2022/05/24 07:26:45;;;;;;;19.92;13.48;;;;;;;;;;5015211;28;20623;-75
2022/05/24 07:29:11;;;;;;;20.67;14.00;;;;;;;;;;5015895;28;20574;-75
2022/05/24 07:31:38;;;;;;;19.40;14.10;;;;;;;;;;5010419;28;20042;-75
2022/05/24 07:34:05;;;;;;;20.83;14.55;;;;;;;;;;5013101;28;20562;-75
2022/05/24 07:36:31;;;;;;;18.08;14.13;;;;;;;;;;5009908;28;20045;-75
2022/05/24 07:38:58;;;;;;;16.90;12.98;;;;;;;;;;5010694;28;20058;-75
2022/05/24 07:46:54;;;;;;;17.55;12.95;;;;;;;;;;5015853;28;20074;-75
2022/05/24 07:49:20;;;;;;;20.50;13.18;;;;;;;;;;5014538;28;20076;-75
2022/05/24 07:51:46;;;;;;;18.98;12.80;;;;;;;;;;5016512;28;20048;-75
2022/05/24 07:54:12;;;;;;;20.10;12.43;;;;;;;;;;5015571;28;20123;-75
2022/05/24 07:56:38;;;;;;;15.65;12.93;;;;;;;;;;5014162;28;20125;-75
2022/05/24 07:59:04;;;;;;;17.13;12.43;;;;;;;;;;5014180;28;20050;-75
2022/05/24 08:01:30;;;;;;;18.15;12.13;;;;;;;;;;5014318;28;20096;-76
2022/05/24 08:03:56;;;;;;;17.15;12.15;;;;;;;;;;5013075;28;20077;-76
2022/05/24 08:06:22;;;;;;;19.42;11.50;;;;;;;;;;5013619;28;20482;-75
2022/05/24 08:08:48;;;;;;;14.10;11.73;;;;;;;;;;5015742;28;20046;-75
2022/05/24 08:11:14;;;;;;;16.50;11.05;;;;;;;;;;5013496;28;20054;-75
2022/05/24 08:13:40;;;;;;;16.70;12.60;;;;;;;;;;5012336;28;20120;-75
2022/05/24 08:16:06;;;;;;;17.65;11.73;;;;;;;;;;5015196;28;20472;-75
2022/05/24 08:18:33;;;;;;;21.00;11.82;;;;;;;;;;5009955;28;20412;-76
2022/05/24 08:20:59;;;;;;;18.55;11.75;;;;;;;;;;5013189;28;20050;-75
2022/05/24 08:23:27;;;;;;;16.98;10.90;;;;;;;;;;5015123;28;20126;-75
2022/05/24 08:25:54;;;;;;;18.33;10.95;;;;;;;;;;5016652;28;20064;-75
2022/05/24 08:28:20;;;;;;;19.98;10.85;;;;;;;;;;5013336;28;20500;-76
2022/05/24 08:30:46;;;;;;;18.52;10.48;;;;;;;;;;5013008;28;20050;-76
2022/05/24 08:33:14;;;;;;;16.42;9.30;;;;;;;;;;5008115;28;20416;-75
2022/05/24 08:35:41;;;;;;;11.82;8.82;;;;;;;;;;5013740;28;20042;-73
2022/05/24 08:38:08;;;;;;;15.32;8.88;;;;;;;;;;5007279;28;20514;-76
2022/05/24 08:40:39;;;;;;;17.63;9.00;;;;;;;;;;5015262;28;20038;-75
2022/05/24 08:43:05;;;;;;;;;;;;;;;;;;4995631;28;20045;-76
2022/05/24 08:48:25;;;;;;;12.77;8.48;;;;;;;;;;5006973;28;20082;-76
2022/05/24 08:50:52;;;;;;;16.77;8.68;;;;;;;;;;5010031;28;20057;-76
2022/05/24 08:53:39;;;;;;;15.50;8.07;;;;;;;;;;5004450;28;20512;-75
2022/05/24 08:56:06;;;;;;;13.00;7.60;;;;;;;;;;5008154;28;20153;-75
2022/05/24 08:58:42;;;;;;;11.85;7.00;;;;;;;;;;5013310;28;20048;-75
2022/05/24 09:01:25;;;;;;;11.88;6.95;;;;;;;;;;5012948;28;20038;-76
2022/05/24 09:03:52;;;;;;;11.85;6.85;;;;;;;;;;5012179;28;20038;-75
2022/05/24 09:06:36;;;;;;;11.32;6.43;;;;;;;;;;4994051;28;20042;-75
2022/05/24 09:09:14;;;;;;;11.60;7.25;;;;;;;;;;4995866;28;20070;-76
2022/05/24 09:11:43;;;;;;;11.15;6.53;;;;;;;;;;4997256;28;20440;-75
2022/05/24 09:14:32;;;;;;;11.70;7.35;;;;;;;;;;4995543;28;20069;-75
2022/05/24 09:17:04;;;;;;;16.45;7.03;;;;;;;;;;5013835;28;20061;-75
2022/05/24 09:19:35;;;;;;;14.20;7.20;;;;;;;;;;5012403;28;20088;-76
2022/05/24 09:22:02;;;;;;;11.18;6.70;;;;;;;;;;5013791;28;20053;-76
2022/05/24 09:24:31;;;;;;;9.95;6.07;;;;;;;;;;5008769;28;20121;-75
2022/05/24 09:27:03;;;;;;;10.50;5.93;;;;;;;;;;4994745;28;20134;-76
2022/05/24 09:29:31;;;;;;;9.32;4.90;;;;;;;;;;4999431;28;20046;-75
2022/05/24 09:31:58;;;;;;;11.25;3.88;;;;;;;;;;5012796;28;20083;-75
2022/05/24 09:34:28;;;;;;;9.60;4.10;;;;;;;;;;5009646;28;20046;-75
2022/05/24 09:36:54;;;;;;;8.82;3.88;;;;;;;;;;5009108;28;20481;-76
2022/05/24 09:39:25;;;;;;;8.75;3.67;;;;;;;;;;5013467;28;20511;-74
2022/05/24 09:41:55;;;;;;;8.07;3.78;;;;;;;;;;5012508;28;20049;-75
2022/05/24 09:44:21;;;;;;;10.40;3.58;;;;;;;;;;5012144;28;20117;-76
2022/05/24 09:46:48;;;;;;;7.53;3.78;;;;;;;;;;5013286;28;20080;-76
2022/05/24 09:49:28;;;;;;;9.38;4.25;;;;;;;;;;5012809;28;20489;-75
2022/05/24 09:51:57;;;;;;;7.88;4.18;;;;;;;;;;5012504;28;20535;-75
2022/05/24 09:54:28;;;;;;;8.00;4.03;;;;;;;;;;4997781;28;20074;-75
2022/05/24 09:57:02;;;;;;;10.13;4.10;;;;;;;;;;4993175;28;20057;-74
2022/05/24 09:59:29;;;;;;;7.45;3.60;;;;;;;;;;4993410;28;20412;-75
2022/05/24 10:01:55;;;;;;;7.22;3.80;;;;;;;;;;5009713;28;20042;-75
2022/05/24 10:04:27;;;;;;;7.07;3.67;;;;;;;;;;5013190;28;20547;-75
2022/05/24 10:07:04;;;;;;;9.43;3.65;;;;;;;;;;4994285;28;20393;-75
2022/05/24 10:09:45;;;;;;;7.97;3.47;;;;;;;;;;4993464;28;20085;-75
2022/05/24 10:12:11;;;;;;;7.22;3.50;;;;;;;;;;5011092;28;20463;-76
2022/05/24 10:14:47;;;;;;;7.70;3.30;;;;;;;;;;5010891;28;20045;-75
2022/05/24 10:17:25;;;;;;;7.88;3.00;;;;;;;;;;5009931;28;20389;-76
2022/05/24 10:20:10;;;;;;;8.07;3.03;;;;;;;;;;5012612;28;20093;-76
2022/05/24 10:22:51;;;;;;;6.68;3.03;;;;;;;;;;4999134;28;20465;-75
2022/05/24 10:25:29;;;;;;;6.50;3.30;;;;;;;;;;4993603;28;20042;-75
2022/05/24 10:28:07;;;;;;;8.43;3.40;;;;;;;;;;5006462;28;20133;-76
2022/05/24 10:30:51;;;;;;;6.65;3.10;;;;;;;;;;5008558;28;20046;-75
2022/05/24 10:39:23;;;;;;;9.07;3.00;;;;;;;;;;5012252;28;20062;-76
2022/05/24 10:42:03;;;;;;;6.47;3.45;;;;;;;;;;5008613;28;20408;-75
2022/05/24 10:44:50;;;;;;;6.25;3.30;;;;;;;;;;4998065;28;20041;-76
2022/05/24 10:47:25;;;;;;;7.13;2.50;;;;;;;;;;5006973;28;20061;-75
2022/05/24 10:49:56;;;;;;;6.45;1.65;;;;;;;;;;5010262;28;20484;-75
2022/05/24 10:52:22;;;;;;;3.78;1.20;;;;;;;;;;5012843;28;20081;-75
2022/05/24 10:55:09;;;;;;;5.15;1.00;;;;;;;;;;5010925;28;20128;-75
2022/05/24 10:57:41;;;;;;;3.13;1.00;;;;;;;;;;5003674;28;20512;-75
2022/05/24 11:00:13;;;;;;;3.65;1.30;;;;;;;;;;4996924;28;20046;-74
2022/05/24 11:02:45;;;;;;;3.95;1.27;;;;;;;;;;5012307;28;20416;-74
2022/05/24 11:05:13;;;;;;;5.63;1.13;;;;;;;;;;5012463;28;20076;-74
2022/05/24 11:07:39;;;;;;;3.85;0.95;;;;;;;;;;5015365;28;20053;-75
2022/05/24 11:10:20;;;;;;;3.80;0.93;;;;;;;;;;5016048;28;20415;-75
2022/05/24 11:12:50;;;;;;;3.50;0.93;;;;;;;;;;4995294;28;20065;-75
2022/05/24 11:15:22;;;;;;;4.00;1.00;;;;;;;;;;5013462;28;20108;-75
2022/05/24 11:17:48;;;;;;;2.30;0.80;;;;;;;;;;5012306;28;20313;-75
2022/05/24 11:20:15;;;;;;;3.78;1.02;;;;;;;;;;5013327;28;20137;-75
2022/05/24 11:22:46;;;;;;;4.10;1.10;;;;;;;;;;5015546;28;20096;-76
2022/05/24 11:25:19;;;;;;;2.80;0.80;;;;;;;;;;5015702;28;20495;-75
2022/05/24 11:27:50;;;;;;;3.40;0.73;;;;;;;;;;5015434;28;20054;-75
2022/05/24 11:30:26;;;;;;;3.22;0.80;;;;;;;;;;5013170;28;20485;-75
2022/05/24 11:32:54;;;;;;;3.40;0.90;;;;;;;;;;5015688;28;20116;-74
2022/05/24 11:35:20;;;;;;;2.75;0.70;;;;;;;;;;5015291;28;20046;-74
2022/05/24 11:37:55;;;;;;;2.28;0.80;;;;;;;;;;5014306;28;20077;-75
2022/05/24 11:40:36;;;;;;;3.55;1.08;;;;;;;;;;5015030;28;20048;-75
2022/05/24 11:43:07;;;;;;;1.70;0.50;;;;;;;;;;4995933;28;20078;-74
2022/05/24 11:45:34;;;;;;;;;;;;;;;;;;5003183;28;20042;-75
2022/05/24 11:48:06;;;;;;;2.45;0.80;;;;;;;;;;5014723;28;19921;-75
2022/05/24 11:50:32;;;;;;;2.70;1.00;;;;;;;;;;5014460;28;20038;-75
2022/05/24 11:53:09;;;;;;;4.53;1.10;;;;;;;;;;5002670;28;20034;-74
2022/05/24 11:55:38;;;;;;;5.90;1.20;;;;;;;;;;5013985;28;20050;-75
2022/05/24 11:58:06;;;;;;;4.35;1.30;;;;;;;;;;5014723;28;20048;-75
2022/05/24 12:00:33;;;;;;;4.38;1.60;;;;;;;;;;5014195;28;20116;-75
2022/05/24 12:08:35;;;;;;;5.30;1.73;;;;;;;;;;5013153;28;20042;-76
2022/05/24 12:11:13;;;;;;;3.55;1.70;;;;;;;;;;5014398;28;20136;-75
2022/05/24 12:13:55;;;;;;;4.88;1.67;;;;;;;;;;5019386;28;20053;-75
2022/05/24 12:16:36;;;;;;;5.93;2.30;;;;;;;;;;5027788;28;20050;-75
2022/05/24 12:19:04;;;;;;;4.25;1.52;;;;;;;;;;5016816;28;20053;-75
2022/05/24 12:21:49;;;;;;;5.40;1.65;;;;;;;;;;5020610;28;20101;-75
2022/05/24 12:24:30;;;;;;;4.07;1.42;;;;;;;;;;5012920;28;20050;-75
2022/05/24 12:27:08;;;;;;;4.57;1.48;;;;;;;;;;5014890;28;20049;-76
2022/05/24 12:29:35;;;;;;;3.47;1.40;;;;;;;;;;5013860;28;20046;-75
2022/05/24 12:32:05;;;;;;;2.90;1.10;;;;;;;;;;5011405;28;20041;-74
2022/05/24 12:34:34;;;;;;;5.05;1.33;;;;;;;;;;5014138;28;20106;-75
2022/05/24 12:37:03;;;;;;;3.17;1.05;;;;;;;;;;5014682;28;20396;-75
2022/05/24 12:39:32;;;;;;;4.90;1.20;;;;;;;;;;5009412;28;20045;-75
2022/05/24 12:41:59;;;;;;;4.32;1.30;;;;;;;;;;5014340;28;20084;-74
2022/05/24 12:44:32;;;;;;;4.45;1.30;;;;;;;;;;5012471;28;20046;-75
2022/05/24 12:47:00;;;;;;;4.53;1.13;;;;;;;;;;4994767;28;20078;-74
2022/05/24 12:49:27;;;;;;;5.07;1.30;;;;;;;;;;5002917;28;20125;-74
2022/05/24 12:51:55;;;;;;;4.88;1.25;;;;;;;;;;4994583;28;20460;-74
2022/05/24 12:54:28;;;;;;;3.97;1.20;;;;;;;;;;5010869;28;20074;-75
2022/05/24 12:56:57;;;;;;;3.88;1.30;;;;;;;;;;5013649;28;20042;-74
2022/05/24 12:59:36;;;;;;;4.45;1.02;;;;;;;;;;5014342;28;20049;-74
2022/05/24 13:02:14;;;;;;;3.28;0.90;;;;;;;;;;5012693;28;20534;-74
2022/05/24 13:04:40;;;;;;;5.15;1.00;;;;;;;;;;5012325;28;20061;-75
2022/05/24 13:07:25;;;;;;;3.80;0.90;;;;;;;;;;5013732;28;20049;-75
2022/05/24 13:09:51;;;;;;;2.60;0.80;;;;;;;;;;5008887;28;20088;-75
2022/05/24 13:12:17;;;;;;;2.97;0.98;;;;;;;;;;5013739;28;20107;-74
2022/05/24 13:14:57;;;;;;;3.72;1.10;;;;;;;;;;5012799;28;20068;-75
2022/05/24 13:17:25;;;;;;;3.40;0.93;;;;;;;;;;5007155;28;20042;-76
2022/05/24 13:19:56;;;;;;;4.93;1.00;;;;;;;;;;5005827;28;20053;-74
2022/05/24 13:22:24;;;;;;;2.55;0.65;;;;;;;;;;5004548;28;20088;-75
2022/05/24 13:24:52;;;;;;;3.17;0.80;;;;;;;;;;5011268;28;20043;-75
2022/05/24 13:27:18;;;;;;;2.72;0.75;;;;;;;;;;5010629;28;20045;-75
2022/05/24 13:35:25;;;;;;;3.08;0.70;;;;;;;;;;5007253;28;20077;-75
2022/05/24 13:37:52;;;;;;;3.65;0.60;;;;;;;;;;5013375;28;20170;-75
2022/05/24 13:40:18;;;;;;;2.47;0.50;;;;;;;;;;5009544;28;20056;-75
2022/05/24 13:42:52;;;;;;;2.15;0.60;;;;;;;;;;5010813;28;20042;-75
2022/05/24 13:45:26;;;;;;;2.92;0.75;;;;;;;;;;5011913;28;20767;-75
2022/05/24 13:47:56;;;;;;;1.95;0.60;;;;;;;;;;5002283;28;20108;-74
2022/05/24 13:50:28;;;;;;;5.00;1.00;;;;;;;;;;5010170;28;20068;-75
2022/05/24 13:52:53;;;;;;;;;;;;;;;;;;5011502;28;20069;-75
2022/05/24 13:55:21;;;;;;;3.10;0.73;;;;;;;;;;5012318;28;19921;-75
2022/05/24 13:57:54;;;;;;;4.32;1.13;;;;;;;;;;5012168;28;20073;-75
2022/05/24 14:00:25;;;;;;;4.38;0.80;;;;;;;;;;5010476;28;20562;-75
2022/05/24 14:02:54;;;;;;;4.03;1.08;;;;;;;;;;5011263;28;20369;-76
2022/05/24 14:05:29;;;;;;;4.10;0.95;;;;;;;;;;5013090;28;20070;-75
2022/05/24 14:07:55;;;;;;;3.03;0.90;;;;;;;;;;5012577;28;20381;-75
2022/05/24 14:10:21;;;;;;;3.58;1.25;;;;;;;;;;5012722;28;20057;-75
2022/05/24 14:12:47;;;;;;;4.60;1.30;;;;;;;;;;5008777;28;20065;-75
2022/05/24 14:15:13;;;;;;;4.78;1.38;;;;;;;;;;5010705;28;20104;-75
2022/05/24 14:17:39;;;;;;;7.20;1.80;;;;;;;;;;5010665;28;20132;-75
2022/05/24 14:20:05;;;;;;;5.40;1.48;;;;;;;;;;5011435;28;20110;-75
2022/05/24 14:22:32;;;;;;;4.50;1.70;;;;;;;;;;5010747;28;20401;-75
2022/05/24 14:24:58;;;;;;;5.68;2.28;;;;;;;;;;5011807;28;20046;-75
2022/05/24 14:27:24;;;;;;;4.38;1.75;;;;;;;;;;5012199;28;20160;-75
2022/05/24 14:29:50;;;;;;;4.40;1.70;;;;;;;;;;5013070;28;20054;-74
2022/05/24 14:32:16;;;;;;;4.55;1.90;;;;;;;;;;5004293;28;20054;-75
2022/05/24 14:34:42;;;;;;;4.47;1.70;;;;;;;;;;4998904;28;20133;-75
2022/05/24 14:37:08;;;;;;;4.22;1.38;;;;;;;;;;5011287;28;20073;-75
2022/05/24 14:39:35;;;;;;;4.38;1.30;;;;;;;;;;5018190;28;20082;-75
2022/05/24 14:42:01;;;;;;;4.80;1.33;;;;;;;;;;5013168;28;20048;-75
2022/05/24 14:44:28;;;;;;;4.72;1.42;;;;;;;;;;5016046;28;20053;-75
2022/05/24 14:46:55;;;;;;;5.63;1.52;;;;;;;;;;5016496;28;20046;-74
2022/05/24 14:49:22;;;;;;;4.72;1.10;;;;;;;;;;5014375;28;20069;-75
2022/05/24 14:51:52;;;;;;;5.28;1.63;;;;;;;;;;5013891;28;20045;-74
2022/05/24 14:54:19;;;;;;;5.50;1.60;;;;;;;;;;5016743;28;20130;-75
2022/05/24 14:56:46;;;;;;;5.22;1.48;;;;;;;;;;5015223;28;20492;-75
2022/05/24 14:59:12;;;;;;;5.55;1.80;;;;;;;;;;5016647;28;20396;-75
2022/05/24 15:01:40;;;;;;;3.67;1.70;;;;;;;;;;5021904;28;20041;-75
2022/05/24 15:04:07;;;;;;;5.22;1.90;;;;;;;;;;5020218;28;20053;-75
2022/05/24 15:06:33;;;;;;;5.75;1.98;;;;;;;;;;5017210;28;20080;-75
2022/05/24 15:17:22;;;;;;;7.32;2.28;;;;;;;;;;5024846;28;20041;-74
2022/05/24 15:19:49;;;;;;;5.28;1.67;;;;;;;;;;5011868;28;20053;-74
2022/05/24 15:22:15;;;;;;;3.92;1.35;;;;;;;;;;5012825;28;20125;-74
2022/05/24 15:24:42;;;;;;;3.97;1.38;;;;;;;;;;5013439;28;20128;-74
2022/05/24 15:27:09;;;;;;;5.28;1.70;;;;;;;;;;5015504;28;20053;-74
2022/05/24 15:29:35;;;;;;;4.93;1.50;;;;;;;;;;5014284;28;20150;-74
2022/05/24 15:32:03;;;;;;;6.88;1.60;;;;;;;;;;5014090;28;20120;-75
2022/05/24 15:34:29;;;;;;;4.28;1.75;;;;;;;;;;5014131;28;20523;-74
2022/05/24 15:36:55;;;;;;;3.78;1.45;;;;;;;;;;5004273;28;20041;-74
2022/05/24 15:39:21;;;;;;;4.57;1.60;;;;;;;;;;5013879;28;20065;-74
2022/05/24 15:41:47;;;;;;;4.20;1.65;;;;;;;;;;5012972;28;20141;-74